sensor_id;sensor_type;location;lat;lon;timestamp;P1;P2;P0
73828;PMS7003;62176;48.450;-4.466;2022-09-09T00:04:28;8.00;5.00;3.00
73828;PMS7003;62176;48.450;-4.466;2022-09-09T00:07:03;5.00;4.00;3.00
73828;PMS7003;62176;48.450;-4.466;2022-09-09T00:15:05;6.75;5.00;3.50
73828;PMS7003;62176;48.450;-4.466;2022-09-09T00:22:48;4.50;4.00;3.00
73828;PMS7003;62176;48.450;-4.466;2022-09-09T00:25:49;9.50;6.00;5.00
73828;PMS7003;62176;48.450;-4.466;2022-09-09T00:28:20;10.50;7.25;5.00
73828;PMS7003;62176;48.450;-4.466;2022-09-09T00:30:49;9.50;6.50;4.00
73828;PMS7003;62176;48.450;-4.466;2022-09-09T00:33:16;6.25;5.75;4.00
73828;PMS7003;62176;48.450;-4.466;2022-09-09T00:35:48;8.00;5.75;3.00
73828;PMS7003;62176;48.450;-4.466;2022-09-09T00:38:28;9.25;6.25;3.50
73828;PMS7003;62176;48.450;-4.466;2022-09-09T00:44:00;10.75;7.25;3.00
73828;PMS7003;62176;48.450;-4.466;2022-09-09T00:49:41;4.50;3.00;2.00
73828;PMS7003;62176;48.450;-4.466;2022-09-09T00:57:43;4.75;3.50;1.75
73828;PMS7003;62176;48.450;-4.466;2022-09-09T01:00:21;5.00;5.00;4.00
73828;PMS7003;62176;48.450;-4.466;2022-09-09T01:11:22;6.50;6.50;4.25
73828;PMS7003;62176;48.450;-4.466;2022-09-09T01:13:53;8.75;5.00;4.75
73828;PMS7003;62176;48.450;-4.466;2022-09-09T01:16:25;5.00;5.00;3.00
73828;PMS7003;62176;48.450;-4.466;2022-09-09T01:18:53;5.75;4.00;2.00
73828;PMS7003;62176;48.450;-4.466;2022-09-09T01:21:35;4.75;4.50;3.00
73828;PMS7003;62176;48.450;-4.466;2022-09-09T01:24:33;7.00;5.25;3.00
73828;PMS7003;62176;48.450;-4.466;2022-09-09T01:27:07;6.50;5.00;3.00
73828;PMS7003;62176;48.450;-4.466;2022-09-09T01:29:34;3.00;2.00;2.00
73828;PMS7003;62176;48.450;-4.466;2022-09-09T01:35:03;5.25;4.50;3.50
73828;PMS7003;62176;48.450;-4.466;2022-09-09T01:37:29;6.00;4.25;3.00
73828;PMS7003;62176;48.450;-4.466;2022-09-09T01:39:55;4.50;3.00;3.00
73828;PMS7003;62176;48.450;-4.466;2022-09-09T01:42:20;10.75;5.50;3.00
73828;PMS7003;62176;48.450;-4.466;2022-09-09T01:44:45;6.75;4.50;3.50
73828;PMS7003;62176;48.450;-4.466;2022-09-09T01:47:11;6.00;5.00;3.00
73828;PMS7003;62176;48.450;-4.466;2022-09-09T01:49:37;7.50;7.00;4.00
73828;PMS7003;62176;48.450;-4.466;2022-09-09T01:55:40;5.75;4.75;2.75
73828;PMS7003;62176;48.450;-4.466;2022-09-09T02:03:50;4.00;4.00;3.00
73828;PMS7003;62176;48.450;-4.466;2022-09-09T02:06:23;9.00;7.50;5.00
73828;PMS7003;62176;48.450;-4.466;2022-09-09T02:08:56;6.75;4.25;3.00
73828;PMS7003;62176;48.450;-4.466;2022-09-09T02:11:25;5.50;5.00;4.00
73828;PMS7003;62176;48.450;-4.466;2022-09-09T02:14:09;7.25;5.75;4.00
73828;PMS7003;62176;48.450;-4.466;2022-09-09T02:16:42;8.75;5.00;3.00
73828;PMS7003;62176;48.450;-4.466;2022-09-09T02:19:20;5.50;3.50;3.00
73828;PMS7003;62176;48.450;-4.466;2022-09-09T02:21:55;13.50;6.00;4.00
73828;PMS7003;62176;48.450;-4.466;2022-09-09T02:24:22;5.25;4.00;2.00
73828;PMS7003;62176;48.450;-4.466;2022-09-09T02:26:49;5.50;4.75;3.00
73828;PMS7003;62176;48.450;-4.466;2022-09-09T02:29:19;5.50;5.00;3.00
73828;PMS7003;62176;48.450;-4.466;2022-09-09T02:31:49;5.25;5.25;4.00
73828;PMS7003;62176;48.450;-4.466;2022-09-09T02:34:14;5.50;4.25;2.50
73828;PMS7003;62176;48.450;-4.466;2022-09-09T02:36:44;5.75;4.75;3.75
73828;PMS7003;62176;48.450;-4.466;2022-09-09T02:39:12;4.50;2.25;1.00
73828;PMS7003;62176;48.450;-4.466;2022-09-09T02:41:39;9.50;5.00;3.00
73828;PMS7003;62176;48.450;-4.466;2022-09-09T02:44:11;8.75;5.00;4.00
73828;PMS7003;62176;48.450;-4.466;2022-09-09T02:55:20;7.00;5.25;3.25
73828;PMS7003;62176;48.450;-4.466;2022-09-09T02:57:53;8.75;5.75;4.00
73828;PMS7003;62176;48.450;-4.466;2022-09-09T03:00:25;8.00;6.00;4.25
73828;PMS7003;62176;48.450;-4.466;2022-09-09T03:02:52;7.50;5.00;3.00
73828;PMS7003;62176;48.450;-4.466;2022-09-09T03:05:19;5.00;5.00;3.25
73828;PMS7003;62176;48.450;-4.466;2022-09-09T03:07:45;8.50;6.25;4.50
73828;PMS7003;62176;48.450;-4.466;2022-09-09T03:10:11;6.00;6.00;3.75
73828;PMS7003;62176;48.450;-4.466;2022-09-09T03:12:36;5.25;4.25;3.00
73828;PMS7003;62176;48.450;-4.466;2022-09-09T03:15:02;6.50;5.75;4.25
73828;PMS7003;62176;48.450;-4.466;2022-09-09T03:17:27;6.25;4.50;3.00
73828;PMS7003;62176;48.450;-4.466;2022-09-09T03:19:53;9.00;5.00;3.75
73828;PMS7003;62176;48.450;-4.466;2022-09-09T03:22:20;10.00;6.25;3.50
73828;PMS7003;62176;48.450;-4.466;2022-09-09T03:24:45;6.25;4.75;3.00
73828;PMS7003;62176;48.450;-4.466;2022-09-09T03:27:11;7.25;4.75;4.00
73828;PMS7003;62176;48.450;-4.466;2022-09-09T03:29:39;5.75;5.75;3.75
73828;PMS7003;62176;48.450;-4.466;2022-09-09T03:32:04;6.25;4.00;4.00
73828;PMS7003;62176;48.450;-4.466;2022-09-09T03:34:30;5.00;4.00;3.00
73828;PMS7003;62176;48.450;-4.466;2022-09-09T03:36:56;9.50;5.00;3.00
73828;PMS7003;62176;48.450;-4.466;2022-09-09T03:39:21;7.25;5.25;3.00
73828;PMS7003;62176;48.450;-4.466;2022-09-09T03:41:47;5.00;5.00;3.50
73828;PMS7003;62176;48.450;-4.466;2022-09-09T03:44:13;8.50;5.25;5.00
73828;PMS7003;62176;48.450;-4.466;2022-09-09T03:46:39;5.75;5.00;4.00
73828;PMS7003;62176;48.450;-4.466;2022-09-09T03:49:04;8.25;4.25;3.00
73828;PMS7003;62176;48.450;-4.466;2022-09-09T03:51:30;9.50;6.00;4.00
73828;PMS7003;62176;48.450;-4.466;2022-09-09T03:53:55;6.50;4.00;2.75
73828;PMS7003;62176;48.450;-4.466;2022-09-09T03:56:23;4.25;3.00;2.50
73828;PMS7003;62176;48.450;-4.466;2022-09-09T03:58:48;7.50;6.00;4.00
73828;PMS7003;62176;48.450;-4.466;2022-09-09T04:01:14;6.75;4.00;2.50
73828;PMS7003;62176;48.450;-4.466;2022-09-09T04:03:42;5.50;4.00;3.00
73828;PMS7003;62176;48.450;-4.466;2022-09-09T04:06:10;6.50;4.50;3.25
73828;PMS7003;62176;48.450;-4.466;2022-09-09T04:08:38;7.00;5.50;3.00
73828;PMS7003;62176;48.450;-4.466;2022-09-09T04:11:04;6.50;4.50;3.75
73828;PMS7003;62176;48.450;-4.466;2022-09-09T04:13:31;7.75;4.25;2.00
73828;PMS7003;62176;48.450;-4.466;2022-09-09T04:15:59;8.00;4.50;3.00
73828;PMS7003;62176;48.450;-4.466;2022-09-09T04:18:26;5.50;5.25;3.50
73828;PMS7003;62176;48.450;-4.466;2022-09-09T04:20:53;5.00;3.75;3.00
73828;PMS7003;62176;48.450;-4.466;2022-09-09T04:23:22;4.00;4.00;2.00
73828;PMS7003;62176;48.450;-4.466;2022-09-09T04:25:52;6.00;4.00;2.00
73828;PMS7003;62176;48.450;-4.466;2022-09-09T04:28:19;5.75;3.50;2.50
73828;PMS7003;62176;48.450;-4.466;2022-09-09T04:30:46;7.50;5.00;3.75
73828;PMS7003;62176;48.450;-4.466;2022-09-09T04:33:12;8.25;4.50;3.00
73828;PMS7003;62176;48.450;-4.466;2022-09-09T04:35:39;4.00;3.75;2.25
73828;PMS7003;62176;48.450;-4.466;2022-09-09T04:38:10;6.00;4.00;3.00
73828;PMS7003;62176;48.450;-4.466;2022-09-09T04:40:35;5.25;3.25;3.00
73828;PMS7003;62176;48.450;-4.466;2022-09-09T04:43:01;5.50;4.50;3.50
73828;PMS7003;62176;48.450;-4.466;2022-09-09T04:45:31;3.50;3.50;3.00
73828;PMS7003;62176;48.450;-4.466;2022-09-09T04:47:56;8.00;5.75;4.00
73828;PMS7003;62176;48.450;-4.466;2022-09-09T04:50:22;6.00;3.75;3.00
73828;PMS7003;62176;48.450;-4.466;2022-09-09T04:52:48;5.00;5.00;3.00
73828;PMS7003;62176;48.450;-4.466;2022-09-09T04:55:13;5.50;5.50;3.00
73828;PMS7003;62176;48.450;-4.466;2022-09-09T04:57:39;6.00;4.00;3.00
73828;PMS7003;62176;48.450;-4.466;2022-09-09T05:00:05;7.00;5.25;3.50
73828;PMS7003;62176;48.450;-4.466;2022-09-09T05:02:31;8.50;5.00;2.75
73828;PMS7003;62176;48.450;-4.466;2022-09-09T05:04:57;6.25;4.00;3.25
73828;PMS7003;62176;48.450;-4.466;2022-09-09T05:07:24;4.25;3.25;2.00
73828;PMS7003;62176;48.450;-4.466;2022-09-09T05:09:51;5.00;3.00;2.00
73828;PMS7003;62176;48.450;-4.466;2022-09-09T05:12:16;6.75;4.25;3.00
73828;PMS7003;62176;48.450;-4.466;2022-09-09T05:14:42;5.00;4.75;3.50
73828;PMS7003;62176;48.450;-4.466;2022-09-09T05:17:08;7.00;7.00;4.00
73828;PMS7003;62176;48.450;-4.466;2022-09-09T05:19:34;6.50;4.75;2.75
73828;PMS7003;62176;48.450;-4.466;2022-09-09T05:21:59;5.00;5.00;3.75
73828;PMS7003;62176;48.450;-4.466;2022-09-09T05:24:26;7.00;4.50;3.00
73828;PMS7003;62176;48.450;-4.466;2022-09-09T05:26:51;11.00;6.25;4.75
73828;PMS7003;62176;48.450;-4.466;2022-09-09T05:29:17;4.75;4.50;3.25
73828;PMS7003;62176;48.450;-4.466;2022-09-09T05:31:44;6.50;5.25;4.00
73828;PMS7003;62176;48.450;-4.466;2022-09-09T05:34:10;9.75;5.50;3.00
73828;PMS7003;62176;48.450;-4.466;2022-09-09T05:36:36;6.00;6.00;4.75
73828;PMS7003;62176;48.450;-4.466;2022-09-09T05:39:02;8.00;6.00;4.00
73828;PMS7003;62176;48.450;-4.466;2022-09-09T05:41:28;9.00;5.25;3.75
73828;PMS7003;62176;48.450;-4.466;2022-09-09T05:43:54;6.25;5.75;3.75
73828;PMS7003;62176;48.450;-4.466;2022-09-09T05:46:21;7.50;6.75;5.00
73828;PMS7003;62176;48.450;-4.466;2022-09-09T05:48:50;11.75;8.50;7.25
73828;PMS7003;62176;48.450;-4.466;2022-09-09T05:51:23;10.25;7.50;5.00
73828;PMS7003;62176;48.450;-4.466;2022-09-09T05:53:51;6.00;5.00;3.50
73828;PMS7003;62176;48.450;-4.466;2022-09-09T05:56:18;9.75;7.00;5.00
73828;PMS7003;62176;48.450;-4.466;2022-09-09T05:58:48;9.25;6.25;5.00
73828;PMS7003;62176;48.450;-4.466;2022-09-09T06:03:42;11.00;7.25;5.50
73828;PMS7003;62176;48.450;-4.466;2022-09-09T06:06:10;11.25;10.75;8.00
73828;PMS7003;62176;48.450;-4.466;2022-09-09T06:08:39;6.75;6.75;5.00
73828;PMS7003;62176;48.450;-4.466;2022-09-09T06:11:09;11.75;7.25;5.00
73828;PMS7003;62176;48.450;-4.466;2022-09-09T06:13:37;8.25;5.50;4.75
73828;PMS7003;62176;48.450;-4.466;2022-09-09T06:16:03;8.50;6.50;4.75
73828;PMS7003;62176;48.450;-4.466;2022-09-09T06:18:30;16.25;10.00;7.00
73828;PMS7003;62176;48.450;-4.466;2022-09-09T06:23:24;7.25;6.00;5.00
73828;PMS7003;62176;48.450;-4.466;2022-09-09T06:25:50;8.25;6.75;4.00
73828;PMS7003;62176;48.450;-4.466;2022-09-09T06:28:16;7.00;4.75;3.00
73828;PMS7003;62176;48.450;-4.466;2022-09-09T06:30:42;7.00;6.00;5.00
73828;PMS7003;62176;48.450;-4.466;2022-09-09T06:33:08;7.75;4.75;3.00
73828;PMS7003;62176;48.450;-4.466;2022-09-09T06:35:34;8.00;4.25;3.75
73828;PMS7003;62176;48.450;-4.466;2022-09-09T06:38:00;4.25;4.25;3.00
73828;PMS7003;62176;48.450;-4.466;2022-09-09T06:40:25;5.75;4.75;3.00
73828;PMS7003;62176;48.450;-4.466;2022-09-09T06:42:51;6.50;3.25;2.00
73828;PMS7003;62176;48.450;-4.466;2022-09-09T06:45:16;6.00;4.00;3.00
73828;PMS7003;62176;48.450;-4.466;2022-09-09T06:47:42;7.25;5.00;4.00
73828;PMS7003;62176;48.450;-4.466;2022-09-09T06:50:08;5.00;3.50;3.50
73828;PMS7003;62176;48.450;-4.466;2022-09-09T06:52:35;6.50;6.00;3.75
73828;PMS7003;62176;48.450;-4.466;2022-09-09T06:55:00;4.00;3.75;2.75
73828;PMS7003;62176;48.450;-4.466;2022-09-09T06:57:26;6.75;3.00;2.00
73828;PMS7003;62176;48.450;-4.466;2022-09-09T06:59:51;6.00;5.25;3.00
73828;PMS7003;62176;48.450;-4.466;2022-09-09T07:02:17;7.50;3.75;2.25
73828;PMS7003;62176;48.450;-4.466;2022-09-09T07:04:42;4.50;3.00;2.25
73828;PMS7003;62176;48.450;-4.466;2022-09-09T07:07:08;6.50;3.25;2.00
73828;PMS7003;62176;48.450;-4.466;2022-09-09T07:09:34;7.00;5.75;3.75
73828;PMS7003;62176;48.450;-4.466;2022-09-09T07:12:00;4.00;4.00;2.50
73828;PMS7003;62176;48.450;-4.466;2022-09-09T07:14:25;5.00;3.50;2.00
73828;PMS7003;62176;48.450;-4.466;2022-09-09T07:16:52;5.00;4.50;3.00
73828;PMS7003;62176;48.450;-4.466;2022-09-09T07:19:17;4.75;4.75;3.25
73828;PMS7003;62176;48.450;-4.466;2022-09-09T07:21:42;5.00;5.00;3.00
73828;PMS7003;62176;48.450;-4.466;2022-09-09T07:24:08;9.00;4.25;3.00
73828;PMS7003;62176;48.450;-4.466;2022-09-09T07:26:35;5.00;3.75;2.00
73828;PMS7003;62176;48.450;-4.466;2022-09-09T07:29:01;2.25;2.00;1.00
73828;PMS7003;62176;48.450;-4.466;2022-09-09T07:31:28;7.25;4.75;3.75
73828;PMS7003;62176;48.450;-4.466;2022-09-09T07:33:55;7.75;3.25;2.00
73828;PMS7003;62176;48.450;-4.466;2022-09-09T07:36:25;5.75;4.50;4.00
73828;PMS7003;62176;48.450;-4.466;2022-09-09T07:38:53;5.25;5.25;2.00
73828;PMS7003;62176;48.450;-4.466;2022-09-09T07:41:21;6.00;5.50;3.75
73828;PMS7003;62176;48.450;-4.466;2022-09-09T07:43:59;4.00;4.00;3.75
73828;PMS7003;62176;48.450;-4.466;2022-09-09T07:46:28;6.75;5.50;3.25
73828;PMS7003;62176;48.450;-4.466;2022-09-09T07:48:54;4.00;3.00;2.00
73828;PMS7003;62176;48.450;-4.466;2022-09-09T07:51:22;6.50;4.00;3.00
73828;PMS7003;62176;48.450;-4.466;2022-09-09T07:53:54;7.00;6.00;4.00
73828;PMS7003;62176;48.450;-4.466;2022-09-09T07:56:22;6.50;5.00;4.25
73828;PMS7003;62176;48.450;-4.466;2022-09-09T07:58:49;5.25;4.75;2.50
73828;PMS7003;62176;48.450;-4.466;2022-09-09T08:01:16;5.00;4.50;2.50
73828;PMS7003;62176;48.450;-4.466;2022-09-09T08:03:44;5.00;4.00;3.00
73828;PMS7003;62176;48.450;-4.466;2022-09-09T08:06:11;6.50;4.00;3.00
73828;PMS7003;62176;48.450;-4.466;2022-09-09T08:08:38;6.00;4.75;3.00
73828;PMS7003;62176;48.450;-4.466;2022-09-09T08:11:16;5.50;5.50;3.00
73828;PMS7003;62176;48.450;-4.466;2022-09-09T08:13:43;4.00;4.00;3.00
73828;PMS7003;62176;48.450;-4.466;2022-09-09T08:16:10;7.50;5.75;3.25
73828;PMS7003;62176;48.450;-4.466;2022-09-09T08:18:41;4.25;3.75;2.50
73828;PMS7003;62176;48.450;-4.466;2022-09-09T08:21:17;5.75;5.75;3.25
73828;PMS7003;62176;48.450;-4.466;2022-09-09T08:23:45;4.00;3.75;2.50
73828;PMS7003;62176;48.450;-4.466;2022-09-09T08:26:13;8.00;6.00;4.00
73828;PMS7003;62176;48.450;-4.466;2022-09-09T08:28:44;7.00;4.50;3.00
73828;PMS7003;62176;48.450;-4.466;2022-09-09T08:33:35;5.75;3.25;2.25
73828;PMS7003;62176;48.450;-4.466;2022-09-09T08:36:03;5.75;4.75;3.25
73828;PMS7003;62176;48.450;-4.466;2022-09-09T08:38:28;6.25;4.00;3.00
73828;PMS7003;62176;48.450;-4.466;2022-09-09T08:40:55;6.00;4.25;3.00
73828;PMS7003;62176;48.450;-4.466;2022-09-09T08:43:32;8.25;4.75;3.00
73828;PMS7003;62176;48.450;-4.466;2022-09-09T08:48:43;8.50;5.00;3.75
73828;PMS7003;62176;48.450;-4.466;2022-09-09T08:51:29;4.00;4.00;2.00
73828;PMS7003;62176;48.450;-4.466;2022-09-09T08:53:56;4.25;4.00;3.00
73828;PMS7003;62176;48.450;-4.466;2022-09-09T08:56:25;8.75;4.00;3.00
73828;PMS7003;62176;48.450;-4.466;2022-09-09T08:58:54;5.00;4.25;3.00
73828;PMS7003;62176;48.450;-4.466;2022-09-09T09:01:40;5.50;4.00;3.00
73828;PMS7003;62176;48.450;-4.466;2022-09-09T09:04:31;3.75;2.75;2.00
73828;PMS7003;62176;48.450;-4.466;2022-09-09T09:12:40;3.50;3.00;2.00
73828;PMS7003;62176;48.450;-4.466;2022-09-09T09:15:11;5.00;5.00;3.25
73828;PMS7003;62176;48.450;-4.466;2022-09-09T09:18:03;1.75;1.75;1.75
73828;PMS7003;62176;48.450;-4.466;2022-09-09T09:20:36;7.00;4.50;3.00
73828;PMS7003;62176;48.450;-4.466;2022-09-09T09:23:19;7.25;4.50;3.00
73828;PMS7003;62176;48.450;-4.466;2022-09-09T09:25:47;6.25;4.75;3.00
73828;PMS7003;62176;48.450;-4.466;2022-09-09T09:28:17;6.00;5.00;3.25
73828;PMS7003;62176;48.450;-4.466;2022-09-09T09:30:54;6.00;5.00;4.00
73828;PMS7003;62176;48.450;-4.466;2022-09-09T09:36:07;7.00;7.00;4.75
73828;PMS7003;62176;48.450;-4.466;2022-09-09T09:38:34;4.50;4.50;3.25
73828;PMS7003;62176;48.450;-4.466;2022-09-09T09:41:01;8.50;5.25;4.00
73828;PMS7003;62176;48.450;-4.466;2022-09-09T09:43:30;6.25;5.00;4.00
73828;PMS7003;62176;48.450;-4.466;2022-09-09T09:45:57;5.25;5.25;4.25
73828;PMS7003;62176;48.450;-4.466;2022-09-09T09:48:24;9.75;7.25;4.50
73828;PMS7003;62176;48.450;-4.466;2022-09-09T09:50:51;7.00;5.50;4.00
73828;PMS7003;62176;48.450;-4.466;2022-09-09T09:53:20;8.75;8.00;5.00
73828;PMS7003;62176;48.450;-4.466;2022-09-09T09:55:49;7.75;4.75;3.00
73828;PMS7003;62176;48.450;-4.466;2022-09-09T09:58:18;5.00;5.00;4.00
73828;PMS7003;62176;48.450;-4.466;2022-09-09T10:00:48;5.00;3.25;3.00
73828;PMS7003;62176;48.450;-4.466;2022-09-09T10:03:31;4.50;3.25;3.00
73828;PMS7003;62176;48.450;-4.466;2022-09-09T10:06:04;6.00;3.00;2.50
73828;PMS7003;62176;48.450;-4.466;2022-09-09T10:08:32;4.25;4.25;3.00
73828;PMS7003;62176;48.450;-4.466;2022-09-09T10:11:10;3.00;3.00;2.00
73828;PMS7003;62176;48.450;-4.466;2022-09-09T10:19:14;4.50;3.50;2.75
73828;PMS7003;62176;48.450;-4.466;2022-09-09T10:35:09;6.00;4.00;3.00
73828;PMS7003;62176;48.450;-4.466;2022-09-09T10:40:50;4.00;4.00;3.00
73828;PMS7003;62176;48.450;-4.466;2022-09-09T10:49:13;1.50;1.50;1.00
73828;PMS7003;62176;48.450;-4.466;2022-09-09T10:57:00;2.25;2.00;1.75
73828;PMS7003;62176;48.450;-4.466;2022-09-09T10:59:30;5.25;2.25;2.00
73828;PMS7003;62176;48.450;-4.466;2022-09-09T11:04:55;3.25;2.25;1.75
73828;PMS7003;62176;48.450;-4.466;2022-09-09T11:18:40;2.00;1.50;1.00
73828;PMS7003;62176;48.450;-4.466;2022-09-09T11:21:09;3.25;3.25;2.00
73828;PMS7003;62176;48.450;-4.466;2022-09-09T11:23:47;2.00;2.00;1.50
73828;PMS7003;62176;48.450;-4.466;2022-09-09T11:26:39;4.00;3.00;2.00
73828;PMS7003;62176;48.450;-4.466;2022-09-09T11:29:15;3.00;3.00;2.75
73828;PMS7003;62176;48.450;-4.466;2022-09-09T11:32:11;2.25;2.00;2.00
73828;PMS7003;62176;48.450;-4.466;2022-09-09T11:40:24;3.00;3.00;1.50
73828;PMS7003;62176;48.450;-4.466;2022-09-09T11:45:53;4.00;1.25;1.00
73828;PMS7003;62176;48.450;-4.466;2022-09-09T11:48:32;1.00;1.00;0.25
73828;PMS7003;62176;48.450;-4.466;2022-09-09T11:53:30;2.25;2.25;1.25
73828;PMS7003;62176;48.450;-4.466;2022-09-09T11:56:30;3.75;0.50;0.50
73828;PMS7003;62176;48.450;-4.466;2022-09-09T12:01:38;0.50;0.50;0.50
73828;PMS7003;62176;48.450;-4.466;2022-09-09T12:06:45;0.50;0.50;0.25
73828;PMS7003;62176;48.450;-4.466;2022-09-09T12:11:48;1.00;1.00;1.00
73828;PMS7003;62176;48.450;-4.466;2022-09-09T12:14:21;1.25;0.50;0.50
73828;PMS7003;62176;48.450;-4.466;2022-09-09T12:17:20;2.25;2.00;0.75
73828;PMS7003;62176;48.450;-4.466;2022-09-09T12:19:48;3.50;0.75;0.25
73828;PMS7003;62176;48.450;-4.466;2022-09-09T12:28:21;2.00;0.75;0.75
73828;PMS7003;62176;48.450;-4.466;2022-09-09T12:33:42;1.75;0.75;0.75
73828;PMS7003;62176;48.450;-4.466;2022-09-09T12:36:22;2.25;2.25;1.50
73828;PMS7003;62176;48.450;-4.466;2022-09-09T12:38:54;0.50;0.50;0.50
73828;PMS7003;62176;48.450;-4.466;2022-09-09T12:41:25;5.25;1.50;1.00
73828;PMS7003;62176;48.450;-4.466;2022-09-09T12:43:51;1.00;1.00;1.00
73828;PMS7003;62176;48.450;-4.466;2022-09-09T12:46:32;0.50;0.50;0.25
73828;PMS7003;62176;48.450;-4.466;2022-09-09T12:49:03;1.75;1.75;1.00
73828;PMS7003;62176;48.450;-4.466;2022-09-09T12:51:30;2.00;2.00;1.00
73828;PMS7003;62176;48.450;-4.466;2022-09-09T12:53:58;1.50;1.00;1.00
73828;PMS7003;62176;48.450;-4.466;2022-09-09T12:56:25;2.00;2.00;2.00
73828;PMS7003;62176;48.450;-4.466;2022-09-09T12:58:53;2.75;2.75;1.00
73828;PMS7003;62176;48.450;-4.466;2022-09-09T13:03:53;3.75;2.00;2.00
73828;PMS7003;62176;48.450;-4.466;2022-09-09T13:06:20;2.00;1.00;1.00
73828;PMS7003;62176;48.450;-4.466;2022-09-09T13:08:58;5.75;1.00;1.00
73828;PMS7003;62176;48.450;-4.466;2022-09-09T13:13:54;0.50;0.50;0.50
73828;PMS7003;62176;48.450;-4.466;2022-09-09T13:16:31;1.00;1.00;0.25
73828;PMS7003;62176;48.450;-4.466;2022-09-09T13:18:58;1.00;0.25;0.00
73828;PMS7003;62176;48.450;-4.466;2022-09-09T13:21:33;0.00;0.00;0.00
73828;PMS7003;62176;48.450;-4.466;2022-09-09T13:23:59;3.00;0.50;0.25
73828;PMS7003;62176;48.450;-4.466;2022-09-09T13:26:28;1.00;1.00;0.00
73828;PMS7003;62176;48.450;-4.466;2022-09-09T13:28:55;2.00;2.00;1.50
73828;PMS7003;62176;48.450;-4.466;2022-09-09T13:31:40;0.50;0.50;0.00
73828;PMS7003;62176;48.450;-4.466;2022-09-09T13:37:29;1.75;1.50;1.00
73828;PMS7003;62176;48.450;-4.466;2022-09-09T13:39:58;1.50;1.00;0.75
73828;PMS7003;62176;48.450;-4.466;2022-09-09T13:42:25;2.75;1.00;0.75
73828;PMS7003;62176;48.450;-4.466;2022-09-09T13:44:52;1.00;1.00;1.00
73828;PMS7003;62176;48.450;-4.466;2022-09-09T13:47:21;1.75;1.50;1.00
73828;PMS7003;62176;48.450;-4.466;2022-09-09T13:49:56;0.25;0.25;0.00
73828;PMS7003;62176;48.450;-4.466;2022-09-09T13:52:22;2.25;1.75;1.75
73828;PMS7003;62176;48.450;-4.466;2022-09-09T13:54:49;0.00;0.00;0.00
73828;PMS7003;62176;48.450;-4.466;2022-09-09T13:57:17;1.00;1.00;1.00
73828;PMS7003;62176;48.450;-4.466;2022-09-09T13:59:43;2.00;2.00;2.00
73828;PMS7003;62176;48.450;-4.466;2022-09-09T14:02:09;2.00;2.00;2.00
73828;PMS7003;62176;48.450;-4.466;2022-09-09T14:04:35;2.00;2.00;1.00
73828;PMS7003;62176;48.450;-4.466;2022-09-09T14:07:01;2.00;2.00;1.00
73828;PMS7003;62176;48.450;-4.466;2022-09-09T14:09:27;1.00;1.00;0.25
73828;PMS7003;62176;48.450;-4.466;2022-09-09T14:11:52;2.00;2.00;1.00
73828;PMS7003;62176;48.450;-4.466;2022-09-09T14:14:20;2.00;2.00;1.00
73828;PMS7003;62176;48.450;-4.466;2022-09-09T14:16:45;2.50;1.00;1.00
73828;PMS7003;62176;48.450;-4.466;2022-09-09T14:19:10;2.00;1.00;1.00
73828;PMS7003;62176;48.450;-4.466;2022-09-09T14:21:36;2.25;1.00;0.25
73828;PMS7003;62176;48.450;-4.466;2022-09-09T14:24:01;1.00;0.75;0.75
73828;PMS7003;62176;48.450;-4.466;2022-09-09T14:26:27;2.75;2.00;1.00
73828;PMS7003;62176;48.450;-4.466;2022-09-09T14:28:54;3.25;2.00;1.00
73828;PMS7003;62176;48.450;-4.466;2022-09-09T14:31:20;4.00;2.00;1.00
73828;PMS7003;62176;48.450;-4.466;2022-09-09T14:33:46;3.50;1.25;0.75
73828;PMS7003;62176;48.450;-4.466;2022-09-09T14:36:11;1.50;1.50;1.00
73828;PMS7003;62176;48.450;-4.466;2022-09-09T14:38:38;1.00;1.00;1.00
73828;PMS7003;62176;48.450;-4.466;2022-09-09T14:41:05;3.00;2.00;1.50
73828;PMS7003;62176;48.450;-4.466;2022-09-09T14:43:31;3.25;3.00;2.00
73828;PMS7003;62176;48.450;-4.466;2022-09-09T14:45:57;2.00;2.00;2.00
73828;PMS7003;62176;48.450;-4.466;2022-09-09T14:48:33;2.75;1.25;1.25
73828;PMS7003;62176;48.450;-4.466;2022-09-09T14:51:33;1.00;1.00;1.00
73828;PMS7003;62176;48.450;-4.466;2022-09-09T14:53:56;4.25;1.00;1.00
73828;PMS7003;62176;48.450;-4.466;2022-09-09T14:56:27;1.00;1.00;1.00
73828;PMS7003;62176;48.450;-4.466;2022-09-09T14:58:55;3.25;2.50;1.00
73828;PMS7003;62176;48.450;-4.466;2022-09-09T15:01:21;1.00;1.00;0.25
73828;PMS7003;62176;48.450;-4.466;2022-09-09T15:03:49;2.50;2.25;2.00
73828;PMS7003;62176;48.450;-4.466;2022-09-09T15:06:20;3.75;1.00;1.00
73828;PMS7003;62176;48.450;-4.466;2022-09-09T15:08:47;2.00;2.00;2.00
73828;PMS7003;62176;48.450;-4.466;2022-09-09T15:11:13;0.50;0.50;0.50
73828;PMS7003;62176;48.450;-4.466;2022-09-09T15:13:40;2.00;2.00;1.50
73828;PMS7003;62176;48.450;-4.466;2022-09-09T15:16:08;3.50;1.25;1.00
73828;PMS7003;62176;48.450;-4.466;2022-09-09T15:18:35;1.75;1.75;1.00
73828;PMS7003;62176;48.450;-4.466;2022-09-09T15:21:02;1.75;1.00;0.00
73828;PMS7003;62176;48.450;-4.466;2022-09-09T15:23:33;2.50;2.00;1.50
73828;PMS7003;62176;48.450;-4.466;2022-09-09T15:25:59;4.00;2.00;1.00
73828;PMS7003;62176;48.450;-4.466;2022-09-09T15:28:25;3.00;1.50;1.00
73828;PMS7003;62176;48.450;-4.466;2022-09-09T15:30:51;0.25;0.25;0.25
73828;PMS7003;62176;48.450;-4.466;2022-09-09T15:33:18;3.75;1.50;1.25
73828;PMS7003;62176;48.450;-4.466;2022-09-09T15:35:44;3.00;1.75;1.75
73828;PMS7003;62176;48.450;-4.466;2022-09-09T15:38:10;2.00;2.00;1.75
73828;PMS7003;62176;48.450;-4.466;2022-09-09T15:40:38;2.25;2.00;2.00
73828;PMS7003;62176;48.450;-4.466;2022-09-09T15:43:04;2.75;1.00;0.25
73828;PMS7003;62176;48.450;-4.466;2022-09-09T15:45:31;2.00;2.00;1.00
73828;PMS7003;62176;48.450;-4.466;2022-09-09T15:47:58;2.50;2.50;1.75
73828;PMS7003;62176;48.450;-4.466;2022-09-09T15:50:24;2.00;2.00;1.00
73828;PMS7003;62176;48.450;-4.466;2022-09-09T15:52:51;3.00;1.00;1.00
73828;PMS7003;62176;48.450;-4.466;2022-09-09T15:55:17;2.75;1.25;0.50
73828;PMS7003;62176;48.450;-4.466;2022-09-09T15:57:45;1.00;1.00;1.00
73828;PMS7003;62176;48.450;-4.466;2022-09-09T16:00:12;3.00;2.00;0.00
73828;PMS7003;62176;48.450;-4.466;2022-09-09T16:02:39;1.25;1.25;1.25
73828;PMS7003;62176;48.450;-4.466;2022-09-09T16:05:04;2.25;1.75;1.00
73828;PMS7003;62176;48.450;-4.466;2022-09-09T16:07:30;3.00;1.75;1.50
73828;PMS7003;62176;48.450;-4.466;2022-09-09T16:09:56;4.75;3.25;2.00
73828;PMS7003;62176;48.450;-4.466;2022-09-09T16:12:21;2.50;2.50;2.00
73828;PMS7003;62176;48.450;-4.466;2022-09-09T16:14:47;3.50;3.50;2.50
73828;PMS7003;62176;48.450;-4.466;2022-09-09T16:17:13;7.75;5.00;3.50
73828;PMS7003;62176;48.450;-4.466;2022-09-09T16:19:39;2.00;2.00;2.00
73828;PMS7003;62176;48.450;-4.466;2022-09-09T16:22:04;4.75;3.00;2.50
73828;PMS7003;62176;48.450;-4.466;2022-09-09T16:24:31;2.00;2.00;1.25
73828;PMS7003;62176;48.450;-4.466;2022-09-09T16:26:57;2.00;2.00;1.00
73828;PMS7003;62176;48.450;-4.466;2022-09-09T16:29:23;3.00;1.25;1.00
73828;PMS7003;62176;48.450;-4.466;2022-09-09T16:31:51;3.00;1.75;1.00
73828;PMS7003;62176;48.450;-4.466;2022-09-09T16:34:17;2.25;1.75;1.00
73828;PMS7003;62176;48.450;-4.466;2022-09-09T16:36:43;1.00;0.00;0.00
73828;PMS7003;62176;48.450;-4.466;2022-09-09T16:39:10;1.00;1.00;1.00
73828;PMS7003;62176;48.450;-4.466;2022-09-09T16:41:38;1.00;1.00;1.00
73828;PMS7003;62176;48.450;-4.466;2022-09-09T16:44:05;1.00;1.00;1.00
73828;PMS7003;62176;48.450;-4.466;2022-09-09T16:46:40;4.00;3.75;2.25
73828;PMS7003;62176;48.450;-4.466;2022-09-09T16:49:08;1.25;1.25;1.00
73828;PMS7003;62176;48.450;-4.466;2022-09-09T16:51:36;1.50;1.50;1.00
73828;PMS7003;62176;48.450;-4.466;2022-09-09T16:54:07;5.50;1.75;1.00
73828;PMS7003;62176;48.450;-4.466;2022-09-09T16:56:34;1.25;1.25;1.00